createdAt,value
2018-06-21T00:01:01.879Z,20.19
2018-06-21T00:03:30.191Z,20.20
2018-06-21T00:05:58.525Z,20.24
2018-06-21T00:08:26.278Z,20.24
2018-06-21T00:10:55.177Z,20.25
2018-06-21T00:13:23.516Z,20.27
2018-06-21T00:15:51.321Z,20.27
2018-06-21T00:18:20.221Z,20.24
2018-06-21T00:20:47.964Z,20.25
2018-06-21T00:23:16.301Z,20.27
2018-06-21T00:25:44.635Z,20.31
2018-06-21T00:28:12.962Z,20.31
2018-06-21T00:30:41.896Z,20.32
2018-06-21T00:33:09.637Z,20.29
2018-06-21T00:35:37.979Z,20.30
2018-06-21T00:38:06.889Z,20.26
2018-06-21T00:40:35.219Z,20.26
2018-06-21T00:43:03.566Z,20.21
2018-06-21T00:45:31.316Z,20.16
2018-06-21T00:48:00.215Z,20.14
2018-06-21T00:50:28.551Z,20.13
2018-06-21T00:52:56.868Z,20.10
2018-06-21T00:55:25.189Z,20.10
2018-06-21T00:57:53.528Z,20.09
2018-06-21T01:00:21.842Z,20.06
2018-06-21T01:02:50.170Z,20.14
2018-06-21T01:05:18.492Z,20.28
2018-06-21T01:07:46.804Z,20.38
2018-06-21T01:10:15.134Z,20.50
2018-06-21T01:12:43.501Z,20.57
2018-06-21T01:15:11.864Z,20.65
2018-06-21T01:17:40.226Z,20.73
2018-06-21T01:20:08.550Z,20.80
2018-06-21T01:22:36.350Z,20.85
2018-06-21T01:25:04.708Z,20.89
2018-06-21T01:27:33.024Z,20.93
2018-06-21T01:30:01.921Z,20.97
2018-06-21T01:32:29.669Z,21.00
2018-06-21T01:34:58.577Z,21.03
2018-06-21T01:37:26.901Z,21.06
2018-06-21T01:39:55.261Z,21.05
2018-06-21T01:42:23.588Z,21.06
2018-06-21T01:44:51.900Z,21.11
2018-06-21T01:47:20.242Z,21.12
2018-06-21T01:49:47.977Z,21.13
2018-06-21T01:52:16.302Z,21.13
2018-06-21T01:54:45.202Z,21.13
2018-06-21T01:57:12.945Z,21.15
2018-06-21T01:59:41.869Z,21.17
2018-06-21T02:02:09.633Z,21.19
2018-06-21T02:04:38.545Z,21.19
2018-06-21T02:07:06.869Z,21.22
2018-06-21T02:09:35.190Z,21.25
2018-06-21T02:12:03.965Z,21.28
2018-06-21T02:14:32.869Z,21.30
2018-06-21T02:17:00.610Z,21.34
2018-06-21T02:19:29.557Z,21.39
2018-06-21T02:21:57.308Z,21.43
2018-06-21T02:24:26.213Z,21.44
2018-06-21T02:26:54.539Z,21.44
2018-06-21T02:29:22.865Z,21.47
2018-06-21T02:31:51.178Z,21.47
2018-06-21T02:34:19.593Z,21.48
2018-06-21T02:36:47.836Z,21.47
2018-06-21T02:39:16.156Z,21.51
2018-06-21T02:41:43.899Z,21.55
2018-06-21T02:44:12.805Z,21.55
2018-06-21T02:46:41.136Z,21.56
2018-06-21T02:49:09.697Z,21.54
2018-06-21T02:51:37.800Z,21.54
2018-06-21T02:54:06.126Z,21.54
2018-06-21T02:56:34.446Z,21.53
2018-06-21T02:59:02.219Z,21.53
2018-06-21T03:01:31.126Z,21.54
2018-06-21T03:03:59.518Z,21.53
2018-06-21T03:06:27.189Z,21.54
2018-06-21T03:08:56.090Z,21.55
2018-06-21T03:11:24.429Z,21.56
2018-06-21T03:13:52.756Z,21.58
2018-06-21T03:16:21.099Z,21.58
2018-06-21T03:18:49.387Z,21.59
2018-06-21T03:21:17.191Z,21.61
2018-06-21T03:23:46.086Z,21.67
2018-06-21T03:26:14.417Z,21.72
2018-06-21T03:28:42.159Z,21.78
2018-06-21T03:31:10.485Z,21.83
2018-06-21T03:33:38.805Z,21.88
2018-06-21T03:36:07.759Z,21.94
2018-06-21T03:38:36.073Z,21.98
2018-06-21T03:41:05.172Z,22.03
2018-06-21T03:43:32.723Z,22.05
2018-06-21T03:46:01.043Z,22.09
2018-06-21T03:48:29.365Z,22.19
2018-06-21T03:50:57.694Z,22.29
2018-06-21T03:53:26.017Z,22.34
2018-06-21T03:55:54.343Z,22.32
2018-06-21T03:58:22.092Z,22.30
2018-06-21T04:00:50.418Z,22.31
2018-06-21T04:03:19.328Z,22.34
2018-06-21T04:05:47.069Z,22.37
2018-06-21T04:08:15.962Z,22.41
2018-06-21T04:10:44.278Z,22.46
2018-06-21T04:13:12.630Z,22.47
2018-06-21T04:15:40.992Z,22.49
2018-06-21T04:18:09.316Z,22.50
2018-06-21T04:20:37.672Z,22.53
2018-06-21T04:23:05.430Z,22.59
2018-06-21T04:25:33.756Z,22.62
2018-06-21T04:28:02.114Z,22.67
2018-06-21T04:30:31.034Z,22.69
2018-06-21T04:32:58.814Z,22.77
2018-06-21T04:35:27.121Z,22.89
2018-06-21T04:37:56.061Z,23.03
2018-06-21T04:40:23.765Z,23.10
2018-06-21T04:42:52.093Z,23.17
2018-06-21T04:45:21.238Z,23.22
2018-06-21T04:47:49.334Z,23.24
2018-06-21T04:50:17.348Z,23.25
2018-06-21T04:52:45.437Z,23.27
2018-06-21T04:55:14.312Z,23.32
2018-06-21T04:57:42.070Z,23.40
2018-06-21T05:00:10.498Z,23.45
2018-06-21T05:02:38.809Z,23.48
2018-06-21T05:05:07.723Z,23.51
2018-06-21T05:07:36.046Z,23.57
2018-06-21T05:10:03.788Z,23.61
2018-06-21T05:12:32.700Z,23.63
2018-06-21T05:15:00.493Z,23.63
2018-06-21T05:17:29.401Z,23.62
2018-06-21T05:19:57.725Z,23.63
2018-06-21T05:22:26.318Z,23.56
2018-06-21T05:24:54.342Z,23.53
2018-06-21T05:27:23.043Z,23.56
2018-06-21T05:29:51.658Z,23.56
2018-06-21T05:32:19.365Z,23.61
2018-06-21T05:34:48.369Z,23.65
2018-06-21T05:37:16.940Z,23.68
2018-06-21T05:39:45.143Z,23.67
2018-06-21T05:42:13.476Z,23.70
2018-06-21T05:44:41.816Z,23.74
2018-06-21T05:47:10.137Z,23.74
2018-06-21T05:49:39.931Z,23.74
2018-06-21T05:52:06.811Z,23.75
2018-06-21T05:54:35.159Z,23.84
2018-06-21T05:57:02.951Z,23.90
2018-06-21T05:59:31.841Z,24.00
2018-06-21T06:02:00.243Z,24.08
2018-06-21T06:04:28.501Z,24.12
2018-06-21T06:06:56.905Z,24.19
2018-06-21T06:09:25.235Z,24.23
2018-06-21T06:11:52.993Z,24.28
2018-06-21T06:14:21.314Z,24.34
2018-06-21T06:16:50.248Z,24.40
2018-06-21T06:19:18.647Z,24.49
2018-06-21T06:21:46.984Z,24.53
2018-06-21T06:24:14.743Z,24.57
2018-06-21T06:26:43.728Z,24.60
2018-06-21T06:29:12.045Z,24.61
2018-06-21T06:31:40.380Z,24.66
2018-06-21T06:34:09.087Z,24.73
2018-06-21T06:36:36.795Z,24.74
2018-06-21T06:39:05.714Z,24.78
2018-06-21T06:41:34.046Z,24.84
2018-06-21T06:44:01.835Z,24.89
2018-06-21T06:46:30.741Z,24.92
2018-06-21T06:48:59.082Z,24.99
2018-06-21T06:51:27.420Z,25.08
2018-06-21T06:53:55.866Z,25.13
2018-06-21T06:56:24.213Z,25.14
2018-06-21T06:58:51.974Z,25.16
2018-06-21T07:01:21.046Z,25.21
2018-06-21T07:03:49.377Z,25.28
2018-06-21T07:06:17.738Z,25.31
2018-06-21T07:08:46.060Z,25.37
2018-06-21T07:11:14.409Z,25.43
2018-06-21T07:13:42.839Z,25.52
2018-06-21T07:16:11.157Z,25.58
2018-06-21T07:18:39.490Z,25.63
2018-06-21T07:21:07.269Z,25.65
2018-06-21T07:23:36.193Z,25.68
2018-06-21T07:26:07.135Z,25.72
2018-06-21T07:28:35.687Z,25.80
2018-06-21T07:31:03.963Z,25.85
2018-06-21T07:33:32.301Z,25.81
2018-06-21T07:36:14.972Z,25.78
2018-06-21T07:38:44.180Z,25.82
2018-06-21T07:41:11.946Z,25.88
2018-06-21T07:43:40.259Z,25.88
2018-06-21T07:46:08.619Z,25.97
2018-06-21T07:48:36.949Z,26.03
2018-06-21T07:51:05.338Z,26.09
2018-06-21T07:53:33.655Z,26.10
2018-06-21T07:56:01.986Z,26.17
2018-06-21T07:58:30.322Z,26.22
2018-06-21T08:00:58.672Z,26.29
2018-06-21T08:03:26.419Z,26.38
2018-06-21T08:05:55.365Z,26.40
2018-06-21T08:08:23.711Z,26.46
2018-06-21T08:10:52.034Z,26.51
2018-06-21T08:13:19.807Z,26.57
2018-06-21T08:15:48.927Z,26.65
2018-06-21T08:18:17.558Z,26.70
2018-06-21T08:20:45.637Z,26.72
2018-06-21T08:23:13.393Z,26.76
2018-06-21T08:25:42.307Z,26.79
2018-06-21T08:28:10.644Z,26.80
2018-06-21T08:30:38.954Z,26.78
2018-06-21T08:33:07.293Z,26.78
2018-06-21T08:35:35.634Z,26.81
2018-06-21T08:38:03.958Z,26.90
2018-06-21T08:40:32.293Z,26.91
2018-06-21T08:43:00.037Z,26.92
2018-06-21T08:45:28.990Z,26.94
2018-06-21T08:47:56.760Z,26.96
2018-06-21T08:50:25.676Z,27.05
2018-06-21T08:52:54.978Z,27.08
2018-06-21T08:55:23.309Z,27.02
2018-06-21T08:57:51.639Z,27.02
2018-06-21T09:00:19.780Z,27.08
2018-06-21T09:02:47.775Z,27.17
2018-06-21T09:05:16.676Z,27.26
2018-06-21T09:07:45.024Z,27.32
2018-06-21T09:10:13.344Z,27.37
2018-06-21T09:12:41.103Z,27.45
2018-06-21T09:15:10.014Z,27.54
2018-06-21T09:17:38.331Z,27.59
2018-06-21T09:20:06.715Z,27.68
2018-06-21T09:22:35.036Z,27.72
2018-06-21T09:25:02.774Z,27.74
2018-06-21T09:27:31.100Z,27.73
2018-06-21T09:30:00.062Z,27.75
2018-06-21T09:32:28.454Z,27.77
2018-06-21T09:34:57.060Z,27.84
2018-06-21T09:37:25.623Z,27.91
2018-06-21T09:39:53.694Z,27.96
2018-06-21T09:42:23.962Z,27.97
2018-06-21T09:44:52.282Z,27.92
2018-06-21T09:47:20.036Z,27.95
2018-06-21T09:49:48.375Z,28.01
2018-06-21T09:52:17.300Z,28.07
2018-06-21T09:57:44.711Z,28.30
2018-06-21T10:00:13.049Z,28.36
2018-06-21T10:02:44.451Z,28.52
2018-06-21T10:05:12.792Z,28.68
2018-06-21T10:07:41.150Z,28.72
2018-06-21T10:10:10.512Z,28.68
2018-06-21T10:12:45.452Z,28.67
2018-06-21T10:15:14.966Z,28.64
2018-06-21T10:17:43.100Z,28.69
2018-06-21T10:20:11.443Z,28.68
2018-06-21T10:22:39.785Z,28.72
2018-06-21T10:25:08.355Z,28.74
2018-06-21T10:27:36.476Z,28.74
2018-06-21T10:30:05.074Z,28.82
2018-06-21T10:32:33.246Z,28.90
2018-06-21T10:35:01.783Z,28.94
2018-06-21T10:37:32.072Z,29.05
2018-06-21T10:40:02.481Z,29.09
2018-06-21T10:42:30.962Z,29.12
2018-06-21T10:45:01.118Z,29.04
2018-06-21T10:47:28.354Z,29.04
2018-06-21T10:49:56.699Z,29.07
2018-06-21T10:52:25.287Z,29.08
2018-06-21T10:54:54.509Z,29.05
2018-06-21T10:57:22.898Z,29.02
2018-06-21T10:59:51.660Z,29.07
2018-06-21T11:02:24.570Z,29.10
2018-06-21T11:04:54.110Z,29.08
2018-06-21T11:07:21.836Z,29.12
2018-06-21T11:09:49.702Z,29.19
2018-06-21T11:12:18.675Z,29.32
2018-06-21T11:14:49.216Z,29.48
2018-06-21T11:17:19.647Z,29.68
2018-06-21T11:19:51.648Z,29.90
2018-06-21T11:22:19.496Z,30.07
2018-06-21T11:24:47.828Z,30.06
2018-06-21T11:27:19.566Z,30.06
2018-06-21T11:29:47.870Z,30.22
2018-06-21T11:32:17.449Z,30.34
2018-06-21T11:34:45.609Z,30.49
2018-06-21T11:37:14.877Z,30.36
2018-06-21T11:39:43.290Z,30.14
2018-06-21T11:42:12.457Z,30.04
2018-06-21T11:44:40.036Z,29.94
2018-06-21T11:47:12.750Z,29.83
2018-06-21T11:49:41.054Z,29.80
2018-06-21T11:52:09.401Z,29.67
2018-06-21T11:54:37.740Z,29.51
2018-06-21T11:57:10.280Z,29.48
2018-06-21T11:59:37.218Z,29.44
2018-06-21T12:02:06.467Z,29.54
2018-06-21T12:04:37.265Z,29.76
2018-06-21T12:07:07.007Z,29.97
2018-06-21T12:09:35.919Z,30.04
2018-06-21T12:12:04.223Z,30.08
2018-06-21T12:14:34.939Z,30.08
2018-06-21T12:17:02.331Z,30.04
2018-06-21T12:19:30.687Z,29.85
2018-06-21T12:21:59.033Z,29.66
2018-06-21T12:24:27.395Z,29.54
2018-06-21T12:26:56.385Z,29.36
2018-06-21T12:29:24.903Z,29.28
2018-06-21T12:31:54.123Z,29.18
2018-06-21T12:34:24.757Z,28.60
2018-06-21T12:36:53.486Z,27.85
2018-06-21T12:39:21.800Z,26.95
2018-06-21T12:41:56.026Z,26.15
2018-06-21T12:44:24.177Z,25.41
2018-06-21T12:46:53.454Z,24.72
2018-06-21T12:49:21.837Z,24.31
2018-06-21T12:51:51.199Z,23.92
2018-06-21T12:54:21.465Z,23.52
2018-06-21T12:56:50.785Z,23.05
2018-06-21T12:59:35.657Z,22.60
2018-06-21T13:01:49.434Z,22.31
2018-06-21T13:04:18.457Z,21.95
2018-06-21T13:06:46.234Z,21.62
2018-06-21T13:09:25.236Z,21.08
2018-06-21T13:12:00.765Z,20.63
2018-06-21T13:14:29.302Z,20.31
2018-06-21T13:16:58.880Z,20.13
2018-06-21T13:19:29.210Z,19.84
2018-06-21T13:21:59.344Z,19.23
2018-06-21T13:24:26.857Z,18.61
2018-06-21T13:26:56.255Z,18.13
2018-06-21T13:29:27.927Z,17.56
2018-06-21T13:31:55.463Z,17.40
2018-06-21T13:34:24.818Z,17.29
2018-06-21T13:36:54.573Z,17.32
2018-06-21T13:39:21.626Z,17.32
2018-06-21T13:41:50.772Z,17.03
2018-06-21T13:44:17.842Z,16.82
2018-06-21T13:46:47.241Z,16.74
2018-06-21T13:49:16.323Z,16.60
2018-06-21T13:51:50.597Z,16.58
2018-06-21T13:54:18.354Z,16.60
2018-06-21T13:56:46.736Z,16.48
2018-06-21T13:59:16.606Z,16.56
2018-06-21T14:01:46.247Z,16.65
2018-06-21T14:04:14.367Z,16.66
2018-06-21T14:06:43.253Z,16.66
2018-06-21T14:09:12.452Z,16.64
2018-06-21T14:11:45.096Z,16.61
2018-06-21T14:14:10.773Z,16.63
2018-06-21T14:16:43.884Z,16.64
2018-06-21T14:19:24.508Z,16.63
2018-06-21T14:21:52.108Z,16.24
2018-06-21T14:24:19.617Z,15.98
2018-06-21T14:26:48.548Z,15.86
2018-06-21T14:29:16.321Z,15.80
2018-06-21T14:31:46.279Z,15.74
2018-06-21T14:34:15.741Z,15.69
2018-06-21T14:36:45.383Z,15.35
2018-06-21T14:39:17.881Z,15.24
2018-06-21T14:41:46.910Z,15.32
2018-06-21T14:44:16.799Z,15.37
2018-06-21T14:46:44.472Z,15.46
2018-06-21T14:49:14.320Z,15.48
2018-06-21T14:51:43.983Z,15.61
2018-06-21T14:54:13.182Z,15.74
2018-06-21T14:56:41.415Z,15.81
2018-06-21T14:59:10.813Z,15.81
2018-06-21T15:01:39.433Z,15.85
2018-06-21T15:04:07.613Z,15.89
2018-06-21T15:06:37.391Z,15.97
2018-06-21T15:09:04.953Z,16.05
2018-06-21T15:11:33.575Z,16.17
2018-06-21T15:14:01.910Z,16.37
2018-06-21T15:16:30.862Z,16.47
2018-06-21T15:18:59.285Z,16.44
2018-06-21T15:21:29.059Z,16.45
2018-06-21T15:23:57.761Z,16.54
2018-06-21T15:26:26.469Z,16.60
2018-06-21T15:28:55.771Z,16.54
2018-06-21T15:31:24.094Z,16.46
2018-06-21T15:33:52.425Z,16.35
2018-06-21T15:36:21.735Z,16.02
2018-06-21T15:38:48.822Z,15.93
2018-06-21T15:41:17.746Z,15.89
2018-06-21T15:43:46.075Z,15.63
2018-06-21T15:46:14.816Z,15.50
2018-06-21T15:48:43.125Z,15.45
2018-06-21T15:51:11.497Z,15.38
2018-06-21T15:53:40.086Z,15.30
2018-06-21T15:56:08.180Z,15.29
2018-06-21T15:58:36.572Z,15.33
2018-06-21T16:01:04.914Z,15.42
2018-06-21T16:03:33.259Z,15.63
2018-06-21T16:06:01.807Z,15.44
2018-06-21T16:08:29.907Z,15.29
2018-06-21T16:10:58.246Z,15.17
2018-06-21T16:13:26.618Z,15.02
2018-06-21T16:15:57.680Z,15.01
2018-06-21T16:18:26.007Z,15.05
2018-06-21T16:20:54.982Z,15.15
2018-06-21T16:23:23.091Z,15.28
2018-06-21T16:25:52.474Z,15.31
2018-06-21T16:28:21.508Z,15.38
2018-06-21T16:30:51.217Z,15.54
2018-06-21T16:33:17.670Z,15.60
2018-06-21T16:35:48.856Z,15.67
2018-06-21T16:38:17.127Z,15.71
2018-06-21T16:40:46.417Z,15.83
2018-06-21T16:43:17.233Z,15.88
2018-06-21T16:45:44.306Z,15.87
2018-06-21T16:48:12.837Z,15.86
2018-06-21T16:50:41.200Z,15.73
2018-06-21T16:53:10.078Z,15.61
2018-06-21T16:55:39.995Z,15.48
2018-06-21T16:58:08.963Z,15.42
2018-06-21T17:00:44.744Z,15.42
2018-06-21T17:03:08.958Z,15.45
2018-06-21T17:05:37.713Z,15.35
2018-06-21T17:08:05.771Z,15.33
2018-06-21T17:10:34.147Z,15.38
2018-06-21T17:13:02.565Z,15.31
2018-06-21T17:15:30.954Z,15.30
2018-06-21T17:17:59.417Z,15.15
2018-06-21T17:20:27.992Z,15.05
2018-06-21T17:22:58.900Z,15.07
2018-06-21T17:25:27.265Z,15.16
2018-06-21T17:27:55.847Z,15.26
2018-06-21T17:30:26.350Z,15.26
2018-06-21T17:32:53.393Z,15.30
2018-06-21T17:35:21.712Z,15.27
2018-06-21T17:37:50.043Z,15.23
2018-06-21T17:40:18.366Z,15.21
2018-06-21T17:42:47.181Z,15.26
2018-06-21T17:45:15.493Z,15.32
2018-06-21T17:47:43.833Z,15.29
2018-06-21T17:50:12.153Z,15.19
2018-06-21T17:52:40.516Z,15.25
2018-06-21T17:55:08.856Z,15.33
2018-06-21T17:57:37.180Z,15.41
2018-06-21T18:00:05.517Z,15.42
2018-06-21T18:02:34.476Z,15.41
2018-06-21T18:05:03.224Z,15.44
2018-06-21T18:07:31.573Z,15.39
2018-06-21T18:09:59.933Z,15.41
2018-06-21T18:12:28.286Z,15.41
2018-06-21T18:15:06.856Z,15.29
2018-06-21T18:17:27.292Z,15.17
2018-06-21T18:19:55.378Z,15.08
2018-06-21T18:22:33.977Z,15.07
2018-06-21T18:25:03.240Z,15.06
2018-06-21T18:27:30.812Z,15.00
2018-06-21T18:29:56.060Z,14.99
2018-06-21T18:32:30.083Z,14.96
2018-06-21T18:34:56.823Z,14.95
2018-06-21T18:37:29.608Z,14.92
2018-06-21T18:39:57.421Z,14.97
2018-06-21T18:42:28.069Z,14.97
2018-06-21T18:44:56.336Z,14.91
2018-06-21T18:47:26.528Z,14.81
2018-06-21T18:49:55.437Z,14.77
2018-06-21T18:52:23.782Z,14.68
2018-06-21T18:54:52.486Z,14.65
2018-06-21T18:57:20.842Z,14.62
2018-06-21T18:59:49.607Z,14.64
2018-06-21T19:02:17.787Z,14.52
2018-06-21T19:04:46.131Z,14.43
2018-06-21T19:07:14.708Z,14.30
2018-06-21T19:09:52.499Z,14.25
2018-06-21T19:12:22.181Z,14.31
2018-06-21T19:14:51.448Z,14.28
2018-06-21T19:17:20.417Z,14.23
2018-06-21T19:19:48.772Z,14.12
2018-06-21T19:22:16.559Z,14.08
2018-06-21T19:24:45.468Z,14.11
2018-06-21T19:27:14.954Z,14.07
2018-06-21T19:29:42.466Z,14.04
2018-06-21T19:32:12.060Z,14.01
2018-06-21T19:34:40.630Z,13.97
2018-06-21T19:37:08.720Z,13.94
2018-06-21T19:39:37.039Z,13.93
2018-06-21T19:42:05.370Z,13.95
2018-06-21T19:44:33.713Z,13.98
2018-06-21T19:47:02.154Z,14.01
2018-06-21T19:49:30.458Z,13.98
2018-06-21T19:51:58.818Z,13.95
2018-06-21T19:54:27.150Z,13.96
2018-06-21T19:56:55.563Z,13.88
2018-06-21T19:59:23.816Z,13.76
2018-06-21T20:01:52.172Z,13.73
2018-06-21T20:04:20.684Z,13.61
2018-06-21T20:06:49.035Z,13.61
2018-06-21T20:09:17.332Z,13.55
2018-06-21T20:11:52.432Z,13.57
2018-06-21T20:14:20.815Z,13.48
2018-06-21T20:16:50.136Z,13.47
2018-06-21T20:19:18.285Z,13.48
2018-06-21T20:21:46.605Z,13.44
2018-06-21T20:24:14.965Z,13.44
2018-06-21T20:26:43.380Z,13.40
2018-06-21T20:29:11.759Z,13.37
2018-06-21T20:31:40.298Z,13.35
2018-06-21T20:34:08.433Z,13.36
2018-06-21T20:36:36.827Z,13.28
2018-06-21T20:39:06.052Z,13.20
2018-06-21T20:41:34.350Z,13.11
2018-06-21T20:44:02.138Z,13.09
2018-06-21T20:46:31.113Z,13.07
2018-06-21T20:48:59.485Z,13.03
2018-06-21T20:51:27.789Z,13.01
2018-06-21T20:53:56.113Z,13.05
2018-06-21T20:56:24.466Z,13.00
2018-06-21T20:58:52.878Z,12.95
2018-06-21T21:01:20.603Z,12.96
2018-06-21T21:03:49.551Z,12.95
2018-06-21T21:06:17.889Z,12.96
2018-06-21T21:08:46.351Z,12.98
2018-06-21T21:11:14.090Z,12.91
2018-06-21T21:13:43.011Z,12.84
2018-06-21T21:16:11.361Z,12.85
2018-06-21T21:18:39.665Z,12.90
2018-06-21T21:21:08.063Z,12.92
2018-06-21T21:23:36.415Z,12.99
2018-06-21T21:26:05.018Z,13.04
2018-06-21T21:28:33.406Z,13.05
2018-06-21T21:31:01.531Z,13.07
2018-06-21T21:33:29.873Z,13.05
2018-06-21T21:35:58.428Z,13.07
2018-06-21T21:38:25.972Z,13.01
2018-06-21T21:40:54.354Z,12.98
2018-06-21T21:43:23.516Z,13.03
2018-06-21T21:45:51.626Z,13.06
2018-06-21T21:48:19.981Z,13.08
2018-06-21T21:50:47.778Z,13.06
2018-06-21T21:53:16.706Z,13.11
2018-06-21T21:55:45.034Z,13.15
2018-06-21T21:58:12.821Z,13.14
2018-06-21T22:00:41.935Z,13.08
2018-06-21T22:03:10.922Z,13.03
2018-06-21T22:05:39.300Z,12.97
2018-06-21T22:08:07.666Z,12.91
2018-06-21T22:10:35.962Z,12.91
2018-06-21T22:13:04.311Z,12.89
2018-06-21T22:15:32.027Z,12.88
2018-06-21T22:18:00.919Z,12.83
2018-06-21T22:20:29.252Z,12.79
2018-06-21T22:22:57.007Z,12.71
2018-06-21T22:25:25.908Z,12.66
2018-06-21T22:27:54.223Z,12.58
2018-06-21T22:30:22.543Z,12.60
2018-06-21T22:32:50.861Z,12.56
2018-06-21T22:35:18.618Z,12.51
2018-06-21T22:37:46.930Z,12.48
2018-06-21T22:40:15.837Z,12.38
2018-06-21T22:42:44.154Z,12.33
2018-06-21T22:45:12.471Z,12.30
2018-06-21T22:47:40.213Z,12.28
2018-06-21T22:50:09.122Z,12.26
2018-06-21T22:52:37.482Z,12.27
2018-06-21T22:55:05.224Z,12.27
2018-06-21T22:57:33.550Z,12.23
2018-06-21T23:00:02.454Z,12.22
2018-06-21T23:02:30.196Z,12.21
2018-06-21T23:04:59.098Z,12.18
2018-06-21T23:07:27.430Z,12.19
2018-06-21T23:09:55.738Z,12.13
2018-06-21T23:12:24.070Z,12.09
2018-06-21T23:14:52.386Z,12.06
2018-06-21T23:17:20.121Z,12.07
2018-06-21T23:19:49.012Z,12.10
2018-06-21T23:22:17.328Z,12.09
2018-06-21T23:24:45.065Z,12.06
2018-06-21T23:27:13.963Z,12.08
2018-06-21T23:29:42.297Z,12.01
2018-06-21T23:32:10.038Z,11.95
2018-06-21T23:34:38.934Z,11.96
2018-06-21T23:37:06.681Z,12.01
2018-06-21T23:39:35.574Z,11.98
2018-06-21T23:42:03.879Z,11.95
2018-06-21T23:44:32.213Z,11.98
2018-06-21T23:47:00.544Z,11.99
2018-06-21T23:49:28.858Z,11.99
2018-06-21T23:51:57.173Z,11.98
2018-06-21T23:54:24.978Z,11.94
2018-06-21T23:56:53.874Z,11.92
2018-06-21T23:59:22.192Z,11.88
